MDPP

Gregorio Luperon International Airport

Puerto Plata, Dominican Republic
TAF MDPP 210400Z 2106/2206 00000KT 9999 FEW018 PROB30 2106/2112 7000 ?TSRA FEW016CB BKN016 BECMG 2114/2116 09010KT SCT020
Issued Valid From Valid To
Apr-21 @ 04:00 UTC
(5 hours ago)
Apr-21 @ 06:00 UTC
(3 hours ago)
Apr-22 @ 06:00 UTC
(in 21 hours)
Apr-21 @ 06:00 to Apr-21 @ 14:00
TAF MDPP 210400Z 2106/2206 00000KT 9999 FEW018
Visibility Clouds
10,000+ meters
  • Few at 1,800' AGL
Probable  (Probability 30%) Apr-21 @ 06:00 to Apr-21 @ 12:00
PROB30 2106/2112 7000 ?TSRA FEW016CB BKN016
Visibility Clouds Conditions
7,001 meters
  • Few at 1,600' AGL
  • Broken at 1,600' AGL
  • Thunderstorm
  • Rain
Becoming Apr-21 @ 14:00 to Apr-22 @ 06:00
BECMG 2114/2116 09010KT SCT020
Wind Visibility Clouds
90° at 10 knots 10,000+ meters
  • Scattered at 2,000' AGL
TAF MDPP 210400Z 2106/2206 00000KT 9999 FEW018 PROB30 2106/2112 7000 ?TSRA FEW016CB BKN016 BECMG 2114/2116 09010KT SCT020
Issued Apr-21 @ 04:00 UTC
(5 hours ago)
Valid From Apr-21 @ 06:00 UTC
(3 hours ago)
Valid To Apr-22 @ 06:00 UTC
(in 21 hours)
Apr-21 @ 06:00 - Apr-21 @ 14:00
Clouds
  • Few at 1,800' AGL
Probability 30% Probable Apr-21 @ 06:00 - Apr-21 @ 12:00
Clouds
  • Few at 1,600' AGL
  • Broken at 1,600' AGL
Conditions
  • Thunderstorm
  • Rain
Becoming Apr-21 @ 14:00 - Apr-22 @ 06:00
Wind Visibility
90° at 10 knots 10,000+ meters
Clouds
  • Scattered at 2,000' AGL